Time;durP1;ratioP1;P1;durP2;ratioP2;P2;SDS_P1;SDS_P2;PMS_P1;PMS_P2;Temp;Humidity;BMP_temperature;BMP_pressure;BME280_temperature;BME280_humidity;BME280_pressure;Samples;Min_cycle;Max_cycle;Signal;HPM_P1;HPM_P2
2022/03/05 00:00:16;;;;;;;3.88;2.40;;;;;;;0.31;57.70;98947.75;5032527;28;20049;-74
2022/03/05 00:02:41;;;;;;;5.68;2.53;;;;;;;0.31;57.69;98951.16;5015717;28;20111;-74
2022/03/05 00:05:08;;;;;;;6.22;2.10;;;;;;;0.27;57.83;98943.41;5033280;28;20615;-74
2022/03/05 00:07:33;;;;;;;;;;;;;;;0.31;57.48;98950.31;4999786;28;20412;-74
2022/03/05 00:09:59;;;;;;;4.50;1.75;;;;;;;0.36;57.32;98946.16;5031885;28;20007;-74
2022/03/05 00:12:25;;;;;;;3.33;2.38;;;;;;;0.40;56.72;98947.97;5033441;28;20033;-74
2022/03/05 00:14:51;;;;;;;3.28;2.15;;;;;;;0.30;56.96;98941.78;5031939;28;20042;-74
2022/03/05 00:17:17;;;;;;;3.58;1.80;;;;;;;0.41;56.61;98948.03;5032218;28;20083;-75
2022/03/05 00:19:42;;;;;;;3.05;2.10;;;;;;;0.38;56.95;98935.19;5033223;28;20073;-73
2022/03/05 00:22:08;;;;;;;2.65;1.88;;;;;;;0.37;56.52;98940.28;5033080;28;20041;-73
2022/03/05 00:24:34;;;;;;;2.65;1.90;;;;;;;0.32;56.87;98946.91;5033049;28;20037;-76
2022/03/05 00:26:59;;;;;;;2.80;1.90;;;;;;;0.25;56.92;98940.81;5033191;28;20037;-74
2022/03/05 00:29:26;;;;;;;2.40;1.77;;;;;;;0.20;57.12;98938.16;5015476;28;20042;-74
2022/03/05 00:31:52;;;;;;;3.22;1.98;;;;;;;0.17;57.05;98942.28;5031458;28;20056;-74
2022/03/05 00:34:18;;;;;;;2.60;1.70;;;;;;;0.17;57.16;98932.09;5031622;28;20061;-74
2022/03/05 00:36:43;;;;;;;2.88;1.73;;;;;;;0.25;57.13;98935.72;5025203;28;20052;-75
2022/03/05 00:39:09;;;;;;;4.63;2.10;;;;;;;0.35;56.62;98936.81;5031163;28;20042;-75
2022/03/05 00:41:34;;;;;;;5.35;1.65;;;;;;;0.32;56.81;98934.16;5031253;28;20107;-75
2022/03/05 00:44:00;;;;;;;2.40;1.55;;;;;;;0.33;56.67;98939.31;4999035;28;20484;-74
2022/03/05 00:46:26;;;;;;;3.20;1.98;;;;;;;0.41;56.58;98942.03;5031520;28;20050;-75
2022/03/05 00:48:52;;;;;;;3.75;1.40;;;;;;;0.40;56.61;98945.44;5031657;28;20064;-75
2022/03/05 00:51:18;;;;;;;5.43;1.50;;;;;;;0.34;56.82;98930.84;5032427;28;20041;-75
2022/03/05 00:53:44;;;;;;;5.80;1.73;;;;;;;0.37;57.00;98937.72;5031465;28;20041;-75
2022/03/05 00:56:10;;;;;;;4.90;1.60;;;;;;;0.33;56.96;98941.88;5014850;28;20032;-74
2022/03/05 00:58:36;;;;;;;3.90;1.48;;;;;;;0.32;57.09;98936.72;5015101;28;20420;-75
2022/03/05 01:01:02;;;;;;;7.32;1.77;;;;;;;0.44;56.92;98937.88;5014934;28;20063;-75
2022/03/05 01:03:27;;;;;;;4.35;1.48;;;;;;;0.44;56.66;98932.78;5014716;28;20095;-75
2022/03/05 01:05:53;;;;;;;2.22;1.50;;;;;;;0.41;56.82;98927.63;5031085;28;20037;-74
2022/03/05 01:08:19;;;;;;;3.28;1.70;;;;;;;0.38;57.10;98925.00;5032373;28;20476;-74
2022/03/05 01:10:45;;;;;;;2.55;1.42;;;;;;;0.35;57.33;98927.47;5030679;28;20041;-74
2022/03/05 01:13:11;;;;;;;;;;;;;;;0.38;57.29;98926.69;5015428;28;20033;-74
2022/03/05 01:15:36;;;;;;;4.90;2.13;;;;;;;0.41;57.08;98917.41;5031004;28;20375;-73
2022/03/05 01:18:03;;;;;;;2.53;1.40;;;;;;;0.38;57.21;98912.22;5030749;28;20485;-74
2022/03/05 01:20:29;;;;;;;3.80;1.80;;;;;;;0.43;56.91;98925.97;5030807;28;20037;-75
2022/03/05 01:22:55;;;;;;;3.42;1.88;;;;;;;0.38;57.08;98916.47;5014507;28;20041;-75
2022/03/05 01:25:20;;;;;;;5.68;1.55;;;;;;;0.41;57.26;98913.97;5031336;28;20056;-73
2022/03/05 01:27:46;;;;;;;3.70;1.63;;;;;;;0.57;56.75;98916.09;5032259;28;20132;-75
2022/03/05 01:30:13;;;;;;;2.58;1.30;;;;;;;0.71;56.09;98907.06;5032056;28;20033;-73
2022/03/05 01:32:40;;;;;;;2.30;1.40;;;;;;;0.59;56.03;98914.41;5030813;28;20124;-75
2022/03/05 01:35:09;;;;;;;2.72;1.63;;;;;;;0.50;56.23;98917.66;5030471;28;20053;-75
2022/03/05 01:37:34;;;;;;;2.85;1.33;;;;;;;0.60;56.38;98922.97;5030755;28;20053;-75
2022/03/05 01:40:00;;;;;;;3.10;1.70;;;;;;;0.65;55.52;98912.03;5031646;28;20037;-75
2022/03/05 01:42:26;;;;;;;5.22;1.80;;;;;;;0.59;55.35;98916.97;5030658;28;20132;-75
2022/03/05 01:44:52;;;;;;;6.93;1.67;;;;;;;0.47;55.08;98927.75;5018748;28;20092;-75
2022/03/05 01:47:19;;;;;;;4.78;1.73;;;;;;;0.64;55.27;98920.53;5012297;28;20042;-75
2022/03/05 01:49:44;;;;;;;5.18;2.20;;;;;;;0.58;54.80;98916.94;5011044;28;20509;-75
2022/03/05 01:52:10;;;;;;;3.45;1.70;;;;;;;0.59;54.85;98927.19;5027342;28;20133;-75
2022/03/05 01:54:37;;;;;;;4.45;1.98;;;;;;;0.65;54.62;98934.13;4997153;28;20044;-75
2022/03/05 01:57:03;;;;;;;8.07;1.77;;;;;;;0.73;54.01;98925.84;5014986;28;20041;-75
2022/03/05 01:59:29;;;;;;;4.28;1.95;;;;;;;0.70;53.92;98924.91;4998447;28;20038;-75
2022/03/05 02:01:54;;;;;;;9.50;2.13;;;;;;;0.65;54.02;98931.59;4982097;28;20642;-75
2022/03/05 02:04:20;;;;;;;6.00;1.80;;;;;;;0.64;54.37;98940.94;5014861;28;20030;-75
2022/03/05 02:06:47;;;;;;;3.97;1.90;;;;;;;0.64;54.07;98930.72;5031254;28;20061;-75
2022/03/05 02:09:12;;;;;;;3.50;2.28;;;;;;;0.74;53.32;98942.00;5031036;28;20069;-75
2022/03/05 02:11:38;;;;;;;4.38;2.03;;;;;;;0.57;54.13;98949.25;4998640;28;20532;-73
2022/03/05 02:14:04;;;;;;;12.18;1.92;;;;;;;0.50;53.97;98947.38;5030481;28;20120;-75
2022/03/05 02:16:30;;;;;;;6.57;1.83;;;;;;;0.39;54.46;98936.91;4997391;28;20052;-73
2022/03/05 02:18:55;;;;;;;4.22;1.70;;;;;;;0.38;54.73;98950.50;5014224;28;20521;-74
2022/03/05 02:21:25;;;;;;;5.53;2.03;;;;;;;0.33;54.71;98949.53;5014424;28;20077;-74
2022/03/05 02:23:51;;;;;;;3.33;1.88;;;;;;;0.34;55.30;98952.94;5015341;28;20056;-74
2022/03/05 02:26:17;;;;;;;3.53;2.33;;;;;;;0.39;55.12;98949.66;5030634;28;20046;-74
2022/03/05 02:28:43;;;;;;;4.53;2.08;;;;;;;0.34;55.15;98956.34;5014517;28;20064;-74
2022/03/05 02:31:08;;;;;;;5.32;2.20;;;;;;;0.37;55.41;98959.00;5014585;28;20136;-74
2022/03/05 02:33:34;;;;;;;4.70;2.10;;;;;;;0.53;55.32;98955.13;5014199;28;20125;-74
2022/03/05 02:36:00;;;;;;;3.67;2.22;;;;;;;0.49;55.71;98961.81;5015496;28;20054;-74
2022/03/05 02:38:26;;;;;;;4.72;2.20;;;;;;;0.49;55.64;98956.72;5030558;28;20136;-74
2022/03/05 02:40:52;;;;;;;4.43;2.40;;;;;;;0.46;55.90;98954.13;4997762;28;20077;-74
2022/03/05 02:43:18;;;;;;;4.95;2.22;;;;;;;0.40;56.21;98951.38;5014025;28;20104;-74
2022/03/05 02:45:44;;;;;;;4.05;1.90;;;;;;;0.40;56.59;98947.97;5032143;28;20099;-74
2022/03/05 02:48:11;;;;;;;4.15;2.00;;;;;;;0.41;56.54;98953.13;5033707;28;20041;-74
2022/03/05 02:50:37;;;;;;;5.80;2.30;;;;;;;0.52;56.65;98961.06;5016874;28;20049;-74
2022/03/05 02:53:04;;;;;;;3.95;1.83;;;;;;;0.52;57.10;98950.84;5017390;28;20033;-74
2022/03/05 02:55:29;;;;;;;;;;;;;;;0.50;57.42;98963.56;5017365;28;20095;-74
2022/03/05 02:57:55;;;;;;;4.00;2.30;;;;;;;0.42;57.68;98951.44;5034911;28;20415;-74
2022/03/05 03:00:20;;;;;;;5.85;3.22;;;;;;;0.45;57.56;98949.81;5016600;28;20042;-74
2022/03/05 03:02:46;;;;;;;4.22;2.33;;;;;;;0.42;57.86;98948.91;5016683;28;20045;-74
2022/03/05 03:05:13;;;;;;;8.00;2.60;;;;;;;0.42;58.27;98956.56;5033179;28;20485;-74
2022/03/05 03:07:38;;;;;;;4.90;2.33;;;;;;;0.46;58.34;98959.22;5033160;28;20037;-74
2022/03/05 03:10:05;;;;;;;3.80;2.22;;;;;;;0.49;58.32;98956.72;5016600;28;20084;-75
2022/03/05 03:12:31;;;;;;;6.20;2.47;;;;;;;0.50;58.17;98957.59;5034395;28;20092;-74
2022/03/05 03:14:57;;;;;;;5.43;2.40;;;;;;;0.49;58.53;98956.72;5032897;28;20068;-75
2022/03/05 03:17:23;;;;;;;3.75;2.20;;;;;;;0.54;58.37;98963.63;5034440;28;20051;-75
2022/03/05 03:19:49;;;;;;;6.57;2.63;;;;;;;0.46;58.75;98956.66;5032479;28;20041;-74
2022/03/05 03:22:15;;;;;;;4.15;2.45;;;;;;;0.46;58.92;98963.47;5016626;28;20033;-74
2022/03/05 03:24:42;;;;;;;6.25;2.50;;;;;;;0.48;59.15;98970.31;5032930;28;20049;-75
2022/03/05 03:27:08;;;;;;;9.18;2.50;;;;;;;0.44;59.45;98963.41;5033031;28;20045;-76
2022/03/05 03:29:33;;;;;;;;;;;;;;;0.45;60.11;98967.66;5033108;28;20048;-75
2022/03/05 03:31:59;;;;;;;4.80;2.30;;;;;;;0.54;59.47;98971.28;5029836;28;20003;-74
2022/03/05 03:34:25;;;;;;;3.95;2.30;;;;;;;0.41;59.60;98976.09;5020231;28;20054;-75
2022/03/05 03:36:50;;;;;;;8.35;2.72;;;;;;;0.38;60.02;98977.72;5013279;28;20057;-74
2022/03/05 03:39:16;;;;;;;6.20;2.40;;;;;;;0.35;60.18;98978.47;5012692;28;20104;-77
2022/03/05 03:41:42;;;;;;;6.22;2.25;;;;;;;0.35;60.59;98973.38;4996430;28;20161;-74
2022/03/05 03:44:09;;;;;;;5.18;2.40;;;;;;;0.50;60.30;98984.00;5029971;28;20086;-75
2022/03/05 03:46:34;;;;;;;5.78;2.53;;;;;;;0.46;60.59;98982.19;5033841;28;20041;-75
2022/03/05 03:49:01;;;;;;;7.57;2.63;;;;;;;0.41;60.95;98986.31;5016552;28;20685;-74
2022/03/05 03:51:26;;;;;;;4.63;2.30;;;;;;;0.44;61.08;98988.06;5016308;28;20041;-75
2022/03/05 03:53:52;;;;;;;7.88;3.13;;;;;;;0.43;61.26;98983.78;5033364;28;20061;-74
2022/03/05 03:56:18;;;;;;;6.60;3.38;;;;;;;0.42;61.63;98984.63;5033462;28;20043;-74
2022/03/05 03:58:44;;;;;;;5.32;2.92;;;;;;;0.42;61.77;98990.59;5031785;28;20122;-75
2022/03/05 04:01:09;;;;;;;4.25;2.50;;;;;;;0.45;62.05;98993.19;5032211;28;20041;-74
2022/03/05 04:03:35;;;;;;;4.57;2.50;;;;;;;0.44;62.37;98988.91;4999095;28;20068;-75
2022/03/05 04:06:01;;;;;;;5.47;2.90;;;;;;;0.37;62.58;98989.59;5032377;28;20786;-76
2022/03/05 04:08:41;;;;;;;4.93;2.70;;;;;;;0.60;61.91;99002.09;5033275;28;20440;-76
2022/03/05 04:11:14;;;;;;;6.20;2.40;;;;;;;0.46;61.50;98999.19;5033705;28;20041;-74
2022/03/05 04:13:40;;;;;;;5.68;2.65;;;;;;;0.39;61.62;99004.94;5032320;28;20075;-75
2022/03/05 04:16:06;;;;;;;12.57;2.90;;;;;;;0.35;62.03;99005.69;4998869;28;20369;-75
2022/03/05 04:18:32;;;;;;;8.77;2.90;;;;;;;0.27;62.69;99008.03;5015335;28;20041;-77
2022/03/05 04:20:58;;;;;;;9.07;2.83;;;;;;;0.27;63.18;99015.69;5015209;28;20088;-75
2022/03/05 04:23:24;;;;;;;10.02;2.80;;;;;;;0.33;63.30;99005.66;5031842;28;20041;-73
2022/03/05 04:25:50;;;;;;;5.45;2.85;;;;;;;0.48;62.91;99011.13;5032825;28;20044;-73
2022/03/05 04:28:15;;;;;;;6.80;2.70;;;;;;;0.54;62.67;99010.44;5032834;28;20191;-74
2022/03/05 04:30:42;;;;;;;9.52;3.42;;;;;;;0.45;63.09;99021.25;5027780;28;20599;-73
2022/03/05 04:33:09;;;;;;;8.95;3.90;;;;;;;0.36;63.83;99023.56;5026257;28;20133;-74
2022/03/05 04:35:34;;;;;;;13.20;7.03;;;;;;;0.36;63.61;99023.56;5025807;28;20053;-74
2022/03/05 04:38:00;;;;;;;8.50;4.60;;;;;;;0.36;64.35;99028.66;5011808;28;20084;-74
2022/03/05 04:40:26;;;;;;;9.75;4.03;;;;;;;0.34;64.63;99030.34;4995253;28;20034;-74
2022/03/05 04:42:51;;;;;;;7.88;3.45;;;;;;;0.30;64.96;99020.88;5024092;28;20041;-74
2022/03/05 04:45:17;;;;;;;5.25;2.58;;;;;;;0.49;64.46;99033.28;5032973;28;20041;-74
2022/03/05 04:47:43;;;;;;;9.57;4.22;;;;;;;0.47;64.28;99029.84;5030121;28;20041;-72
2022/03/05 04:50:09;;;;;;;11.25;3.65;;;;;;;0.38;64.66;99039.81;4999377;28;20473;-75
2022/03/05 04:52:36;;;;;;;5.80;3.58;;;;;;;0.41;64.98;99034.78;4978969;28;20416;-74
2022/03/05 04:55:03;;;;;;;7.13;3.60;;;;;;;0.52;64.29;99045.25;4995065;28;20030;-74
2022/03/05 04:57:28;;;;;;;11.00;3.65;;;;;;;0.37;65.00;99038.06;4995133;28;20041;-75
2022/03/05 04:59:54;;;;;;;6.85;3.60;;;;;;;0.40;64.93;99047.47;5011703;28;20088;-73
2022/03/05 05:02:20;;;;;;;7.75;3.38;;;;;;;0.39;64.56;99041.53;4995430;28;20544;-74
2022/03/05 05:04:46;;;;;;;5.43;3.25;;;;;;;0.35;64.68;99043.94;5012649;28;20046;-76
2022/03/05 05:07:12;;;;;;;8.48;3.40;;;;;;;0.32;64.81;99041.31;5012686;28;20413;-74
2022/03/05 05:09:40;;;;;;;5.18;3.30;;;;;;;0.32;64.43;99044.75;5011227;28;20026;-75
2022/03/05 05:12:06;;;;;;;11.52;5.22;;;;;;;0.37;63.94;99047.44;5001966;28;20103;-73
2022/03/05 05:14:32;;;;;;;5.53;3.15;;;;;;;0.45;63.30;99054.44;5024610;28;20033;-74
2022/03/05 05:16:58;;;;;;;5.80;3.00;;;;;;;0.44;63.14;99062.91;5029894;28;20479;-74
2022/03/05 05:19:29;;;;;;;6.45;2.97;;;;;;;0.41;63.06;99052.66;5030124;28;20045;-76
2022/03/05 05:22:00;;;;;;;5.53;3.10;;;;;;;0.38;62.41;99062.75;5018615;28;20045;-75
2022/03/05 05:24:28;;;;;;;4.10;2.55;;;;;;;0.38;62.37;99064.44;5016717;28;20087;-76
2022/03/05 05:26:54;;;;;;;5.32;2.70;;;;;;;0.38;62.26;99065.31;5022722;28;20029;-77
2022/03/05 05:29:19;;;;;;;;;;;;;;;0.52;62.54;99073.34;5012738;28;20493;-74
2022/03/05 05:31:45;;;;;;;4.93;2.70;;;;;;;0.55;61.66;99077.63;5030171;28;19917;-73
2022/03/05 05:34:11;;;;;;;6.35;3.10;;;;;;;0.56;62.12;99069.19;5014319;28;20049;-75
2022/03/05 05:36:38;;;;;;;5.97;3.13;;;;;;;0.57;62.25;99086.22;5030721;28;20068;-75
2022/03/05 05:39:08;;;;;;;6.07;2.88;;;;;;;0.51;62.65;99074.16;5030776;28;20039;-75
2022/03/05 05:41:34;;;;;;;4.40;2.67;;;;;;;0.54;62.48;99075.91;5031652;28;20107;-75
2022/03/05 05:44:00;;;;;;;6.25;3.45;;;;;;;0.63;62.69;99081.25;5030650;28;20029;-74
2022/03/05 05:46:27;;;;;;;8.02;3.95;;;;;;;0.70;62.46;99078.91;5030379;28;20041;-74
2022/03/05 05:48:53;;;;;;;6.55;3.08;;;;;;;0.61;62.85;99078.69;5013808;28;20045;-75
2022/03/05 05:51:18;;;;;;;;;;;;;;;0.68;63.13;99079.69;5032262;28;20042;-75
2022/03/05 05:53:44;;;;;;;5.32;2.72;;;;;;;0.78;62.69;99074.03;5031827;28;19913;-74
2022/03/05 05:56:10;;;;;;;5.65;2.80;;;;;;;0.71;62.67;99082.34;5030590;28;20037;-74
2022/03/05 05:58:35;;;;;;;3.88;2.53;;;;;;;0.72;62.97;99082.38;5030317;28;20041;-74
2022/03/05 06:01:01;;;;;;;5.70;2.60;;;;;;;0.70;62.96;99078.06;5031632;28;20523;-74
2022/03/05 06:03:27;;;;;;;3.97;2.30;;;;;;;0.70;62.87;99084.03;5030759;28;20037;-76
2022/03/05 06:05:53;;;;;;;3.70;2.42;;;;;;;0.69;62.22;99078.88;5030430;28;20045;-74
2022/03/05 06:08:19;;;;;;;4.65;2.60;;;;;;;0.86;61.41;99081.84;5014069;28;20037;-75
2022/03/05 06:10:46;;;;;;;8.38;2.20;;;;;;;0.75;60.11;99084.16;5030351;28;20041;-75
2022/03/05 06:13:11;;;;;;;6.88;2.15;;;;;;;0.85;59.85;99077.56;5030499;28;20447;-73
2022/03/05 06:15:37;;;;;;;3.92;2.10;;;;;;;0.88;58.79;99098.09;5031327;28;20048;-75
2022/03/05 06:18:03;;;;;;;9.75;2.47;;;;;;;1.01;57.78;99082.25;5031321;28;20041;-74
2022/03/05 06:20:29;;;;;;;7.35;1.75;;;;;;;1.13;57.47;99084.22;5031279;28;20103;-74
2022/03/05 06:22:55;;;;;;;5.75;2.17;;;;;;;1.15;56.59;99093.66;5030296;28;20037;-74
2022/03/05 06:25:21;;;;;;;3.67;2.30;;;;;;;1.27;55.82;99093.94;5030022;28;20053;-74
2022/03/05 06:27:46;;;;;;;6.00;2.00;;;;;;;1.29;55.72;99105.91;5030145;28;20488;-75
2022/03/05 06:30:12;;;;;;;9.10;2.00;;;;;;;1.12;56.06;99098.69;5030281;28;20034;-75
2022/03/05 06:32:38;;;;;;;8.00;2.10;;;;;;;1.06;55.46;99103.66;5029857;28;20033;-75
2022/03/05 06:35:05;;;;;;;4.22;2.00;;;;;;;1.01;56.11;99103.53;4996944;28;20069;-74
2022/03/05 06:37:30;;;;;;;8.15;2.72;;;;;;;0.95;56.29;99116.13;5030098;28;20045;-75
2022/03/05 06:39:56;;;;;;;9.93;2.35;;;;;;;0.89;56.53;99110.88;5032524;28;20042;-74
2022/03/05 06:42:22;;;;;;;6.15;1.92;;;;;;;0.96;56.45;99109.34;5000917;28;20180;-74
2022/03/05 06:44:48;;;;;;;7.72;2.30;;;;;;;1.10;56.27;99108.03;5033793;28;20044;-73
2022/03/05 06:47:13;;;;;;;7.97;2.10;;;;;;;1.20;56.43;99114.22;5035043;28;20500;-76
2022/03/05 06:49:39;;;;;;;6.97;2.08;;;;;;;1.15;56.23;99115.81;5034838;28;20045;-75
2022/03/05 06:52:05;;;;;;;6.22;1.88;;;;;;;1.36;55.65;99112.88;5034899;28;20073;-75
2022/03/05 06:54:30;;;;;;;4.13;2.10;;;;;;;1.28;56.06;99105.03;5035186;28;20037;-75
2022/03/05 06:56:56;;;;;;;8.93;3.10;;;;;;;1.35;55.90;99117.13;5034386;28;20044;-74
2022/03/05 06:59:22;;;;;;;7.22;2.47;;;;;;;1.29;55.92;99114.44;5034671;28;20084;-74
2022/03/05 07:01:47;;;;;;;8.70;2.40;;;;;;;1.37;54.91;99120.56;5033189;28;20072;-75
2022/03/05 07:04:13;;;;;;;26.92;2.60;;;;;;;1.33;54.05;99113.69;5034541;28;20042;-74
2022/03/05 07:06:39;;;;;;;7.45;1.90;;;;;;;1.35;54.11;99112.03;5034728;28;20048;-75
2022/03/05 07:09:05;;;;;;;5.82;2.13;;;;;;;1.49;53.71;99120.88;5033530;28;20033;-75
2022/03/05 07:11:31;;;;;;;8.68;2.42;;;;;;;1.35;53.12;99119.69;5034769;28;20053;-74
2022/03/05 07:13:56;;;;;;;8.98;2.00;;;;;;;1.46;53.62;99128.47;5016884;28;20045;-75
2022/03/05 07:16:22;;;;;;;10.55;2.13;;;;;;;1.31;53.17;99122.13;5034449;28;20040;-74
2022/03/05 07:18:48;;;;;;;7.25;2.00;;;;;;;1.56;53.15;99121.91;5034307;28;20050;-74
2022/03/05 07:21:13;;;;;;;20.23;3.05;;;;;;;1.51;52.12;99133.69;5000365;28;20041;-74
2022/03/05 07:23:39;;;;;;;9.13;1.83;;;;;;;1.54;51.79;99138.88;5000261;28;20488;-74
2022/03/05 07:26:05;;;;;;;10.75;2.08;;;;;;;1.66;51.90;99140.84;5032846;28;20041;-74
2022/03/05 07:28:31;;;;;;;5.50;1.80;;;;;;;1.66;52.13;99138.31;5016297;28;20072;-74
2022/03/05 07:30:56;;;;;;;7.60;1.92;;;;;;;1.56;51.62;99152.56;5033002;28;20067;-76
2022/03/05 07:33:23;;;;;;;16.70;2.30;;;;;;;1.58;51.28;99153.47;5033075;28;20459;-74
2022/03/05 07:35:48;;;;;;;5.60;2.00;;;;;;;1.72;51.53;99154.63;5016280;28;20060;-74
2022/03/05 07:38:14;;;;;;;9.48;2.40;;;;;;;1.73;51.03;99147.81;5033870;28;20044;-74
2022/03/05 07:40:40;;;;;;;7.93;2.60;;;;;;;1.73;51.23;99160.59;5032729;28;20037;-75
2022/03/05 07:43:05;;;;;;;6.70;2.55;;;;;;;1.76;50.86;99161.56;5033976;28;20115;-74
2022/03/05 07:45:31;;;;;;;8.32;2.70;;;;;;;1.77;50.66;99162.41;5033689;28;20041;-75
2022/03/05 07:47:57;;;;;;;8.48;2.95;;;;;;;1.89;50.44;99159.28;5016024;28;20091;-75
2022/03/05 07:50:23;;;;;;;;;;;;;;;1.98;49.54;99159.50;5032745;28;20037;-75
2022/03/05 07:52:48;;;;;;;14.60;3.00;;;;;;;2.02;50.35;99154.47;5031873;28;19917;-74
2022/03/05 07:55:14;;;;;;;8.05;3.45;;;;;;;2.15;49.70;99159.81;5033905;28;20029;-74
2022/03/05 07:57:40;;;;;;;5.93;3.08;;;;;;;2.12;49.47;99164.91;5033407;28;20045;-75
2022/03/05 08:00:06;;;;;;;15.45;3.45;;;;;;;1.97;49.26;99168.84;5032307;28;20045;-75
2022/03/05 08:02:37;;;;;;;13.52;3.30;;;;;;;2.01;48.89;99157.84;5016730;28;20048;-75
2022/03/05 08:05:03;;;;;;;8.75;3.05;;;;;;;1.97;49.38;99171.41;5032524;28;20504;-74
2022/03/05 08:07:29;;;;;;;10.18;3.22;;;;;;;1.93;48.96;99179.84;5032291;28;20475;-74
2022/03/05 08:09:54;;;;;;;10.65;3.20;;;;;;;2.07;48.60;99176.75;5016156;28;20529;-75
2022/03/05 08:12:20;;;;;;;13.85;2.33;;;;;;;2.06;48.75;99174.97;5032463;28;20496;-74
2022/03/05 08:14:47;;;;;;;10.15;2.85;;;;;;;1.94;48.59;99171.34;5032438;28;20049;-74
2022/03/05 08:17:14;;;;;;;13.27;2.92;;;;;;;1.83;48.64;99190.66;5033831;28;20041;-75
2022/03/05 08:19:40;;;;;;;6.85;2.42;;;;;;;1.77;48.23;99180.31;5033360;28;20095;-74
2022/03/05 08:22:06;;;;;;;12.25;2.63;;;;;;;1.89;48.14;99183.16;5031950;28;20037;-75
2022/03/05 08:24:32;;;;;;;;;;;;;;;2.07;48.95;99186.97;5033520;28;20050;-74
2022/03/05 08:26:57;;;;;;;5.03;2.20;;;;;;;2.09;48.58;99183.59;5031994;28;19920;-74
2022/03/05 08:29:24;;;;;;;6.80;1.77;;;;;;;2.21;48.74;99180.44;5031709;28;20385;-75
2022/03/05 08:31:49;;;;;;;;;;;;;;;1.93;48.46;99195.19;5016105;28;20037;-74
2022/03/05 08:34:15;;;;;;;5.57;2.20;;;;;;;1.60;50.01;99194.38;5032778;28;19944;-74
2022/03/05 08:36:41;;;;;;;8.40;2.78;;;;;;;1.50;50.57;99194.16;5031656;28;20041;-75
2022/03/05 08:39:06;;;;;;;7.18;2.30;;;;;;;1.52;50.31;99201.88;5031494;28;20044;-75
2022/03/05 08:41:32;;;;;;;7.45;1.95;;;;;;;1.67;49.98;99193.72;5014816;28;20061;-75
2022/03/05 08:43:58;;;;;;;7.57;2.45;;;;;;;1.59;50.08;99195.22;5031105;28;20079;-74
2022/03/05 08:46:23;;;;;;;7.53;2.65;;;;;;;1.53;50.45;99204.47;5032712;28;20519;-75
2022/03/05 08:48:49;;;;;;;3.97;2.28;;;;;;;1.59;50.22;99193.53;5032644;28;20137;-74
2022/03/05 08:51:15;;;;;;;8.05;2.30;;;;;;;1.69;49.86;99194.59;5032587;28;20048;-74
2022/03/05 08:53:40;;;;;;;8.77;2.30;;;;;;;1.76;49.75;99197.34;5032282;28;20175;-75
2022/03/05 08:56:06;;;;;;;6.53;2.53;;;;;;;1.81;49.67;99200.00;5030872;28;20083;-74
2022/03/05 08:58:32;;;;;;;7.88;2.42;;;;;;;1.89;48.88;99190.84;5030991;28;20053;-75
2022/03/05 09:01:01;;;;;;;17.02;6.63;;;;;;;1.97;48.93;99197.00;5031236;28;20041;-73
2022/03/05 09:03:30;;;;;;;16.67;3.47;;;;;;;1.90;49.07;99202.78;5030936;28;20448;-74
2022/03/05 09:05:57;;;;;;;7.72;2.88;;;;;;;1.83;48.79;99207.72;5032433;28;20037;-75
2022/03/05 09:08:23;;;;;;;11.98;2.78;;;;;;;1.85;48.76;99196.72;5032344;28;20052;-76
2022/03/05 09:10:49;;;;;;;5.93;2.40;;;;;;;1.87;48.03;99200.16;5032758;28;20037;-74
2022/03/05 09:13:14;;;;;;;5.72;2.03;;;;;;;2.06;48.65;99190.34;5031498;28;20034;-75
2022/03/05 09:15:40;;;;;;;7.72;2.15;;;;;;;1.90;47.54;99204.47;5014525;28;20400;-75
2022/03/05 09:18:06;;;;;;;5.65;2.30;;;;;;;1.82;48.22;99203.44;5014220;28;20492;-75
2022/03/05 09:20:32;;;;;;;6.78;2.13;;;;;;;2.04;47.51;99203.97;5031057;28;20084;-74
2022/03/05 09:22:58;;;;;;;;;;;;;;;2.20;47.37;99209.41;5031358;28;20037;-75
2022/03/05 09:25:24;;;;;;;19.88;2.70;;;;;;;2.09;46.96;99200.66;5032143;28;19920;-74
2022/03/05 09:27:52;;;;;;;8.23;2.50;;;;;;;1.88;47.08;99204.47;5030768;28;20049;-75
2022/03/05 09:30:18;;;;;;;12.18;3.13;;;;;;;1.93;47.18;99207.97;5032346;28;20039;-74
2022/03/05 09:32:44;;;;;;;10.77;3.15;;;;;;;2.01;46.43;99214.13;5032044;28;20033;-75
2022/03/05 09:35:10;;;;;;;13.25;2.75;;;;;;;1.94;46.26;99206.28;5031952;28;20053;-74
2022/03/05 09:37:36;;;;;;;13.43;2.78;;;;;;;1.93;46.05;99205.44;4997879;28;20060;-74
2022/03/05 09:40:02;;;;;;;5.70;2.25;;;;;;;1.97;45.66;99206.34;5030419;28;20042;-75
2022/03/05 09:42:28;;;;;;;6.00;3.17;;;;;;;2.03;45.31;99204.78;5013975;28;20125;-75
2022/03/05 09:44:54;;;;;;;11.55;2.80;;;;;;;2.09;45.35;99219.41;5029950;28;20374;-75
2022/03/05 09:47:21;;;;;;;7.85;2.88;;;;;;;2.15;45.75;99216.97;5030685;28;20057;-74
2022/03/05 09:49:47;;;;;;;8.93;2.60;;;;;;;2.13;45.40;99212.69;5030510;28;20083;-74
2022/03/05 09:52:13;;;;;;;10.00;2.80;;;;;;;2.07;45.79;99208.28;5030337;28;20044;-74
2022/03/05 09:54:39;;;;;;;6.25;2.65;;;;;;;2.25;45.44;99207.84;5014298;28;20025;-74
2022/03/05 09:57:13;;;;;;;8.70;2.70;;;;;;;2.36;44.88;99206.38;5031628;28;20069;-74
2022/03/05 09:59:39;;;;;;;15.55;2.63;;;;;;;2.28;44.74;99210.44;5013956;28;20037;-74
2022/03/05 10:02:05;;;;;;;7.53;1.98;;;;;;;2.46;45.22;99202.28;5030518;28;20443;-75
2022/03/05 10:04:31;;;;;;;14.25;2.88;;;;;;;2.50;44.53;99214.34;5030210;28;20461;-75
2022/03/05 10:07:13;;;;;;;8.27;2.92;;;;;;;2.49;45.18;99220.28;4997494;28;20064;-74
2022/03/05 10:09:41;;;;;;;5.40;2.00;;;;;;;2.39;44.60;99216.69;5031698;28;20044;-75
2022/03/05 10:12:26;;;;;;;4.05;1.70;;;;;;;2.42;44.85;99216.72;4998076;28;20040;-74
2022/03/05 10:15:08;;;;;;;6.60;2.47;;;;;;;2.50;44.82;99215.19;5033281;28;20056;-74
2022/03/05 10:17:56;;;;;;;9.73;2.42;;;;;;;2.34;45.31;99225.97;5035499;28;20235;-75
2022/03/05 10:20:27;;;;;;;6.30;2.78;;;;;;;2.22;44.41;99236.78;5035569;28;20046;-75
2022/03/05 10:22:58;;;;;;;7.25;2.08;;;;;;;2.21;44.56;99232.50;5035223;28;20045;-74
2022/03/05 10:25:34;;;;;;;7.75;2.40;;;;;;;2.18;44.64;99232.41;5034060;28;20052;-75
2022/03/05 10:28:01;;;;;;;11.50;2.92;;;;;;;2.31;44.74;99231.00;5033862;28;20415;-75
2022/03/05 10:30:28;;;;;;;10.85;4.18;;;;;;;2.20;45.46;99229.88;5034375;28;20030;-75
2022/03/05 10:32:54;;;;;;;6.30;2.97;;;;;;;2.14;45.06;99232.31;5033793;28;20048;-74
2022/03/05 10:35:20;;;;;;;9.52;2.60;;;;;;;2.04;45.26;99237.22;5035062;28;20065;-74
2022/03/05 10:37:51;;;;;;;14.82;2.40;;;;;;;2.02;45.39;99236.34;5017503;28;20191;-75
2022/03/05 10:40:25;;;;;;;11.50;2.63;;;;;;;2.19;45.65;99240.94;5033486;28;20104;-75
2022/03/05 10:42:50;;;;;;;8.95;3.17;;;;;;;2.17;45.33;99229.84;5034103;28;20037;-74
2022/03/05 10:45:18;;;;;;;9.82;2.88;;;;;;;2.25;45.15;99228.31;5034866;28;20500;-74
2022/03/05 10:47:46;;;;;;;10.70;2.50;;;;;;;2.24;45.38;99224.88;5033819;28;20048;-74
2022/03/05 10:50:14;;;;;;;6.78;2.58;;;;;;;2.23;46.02;99224.84;5017265;28;20025;-75
2022/03/05 10:52:47;;;;;;;7.47;2.47;;;;;;;2.27;45.14;99231.75;5034896;28;20037;-74
2022/03/05 10:55:17;;;;;;;11.27;2.47;;;;;;;2.34;44.84;99228.53;5017338;28;20045;-75
2022/03/05 10:58:13;;;;;;;14.27;2.40;;;;;;;2.45;45.01;99219.34;5016975;28;20037;-74
2022/03/05 11:00:39;;;;;;;9.57;2.55;;;;;;;2.39;44.53;99226.06;5033277;28;20037;-74
2022/03/05 11:03:05;;;;;;;6.97;2.30;;;;;;;2.51;44.91;99219.47;5033343;28;20393;-74
2022/03/05 11:05:31;;;;;;;13.70;2.70;;;;;;;2.51;44.23;99222.03;5034731;28;20048;-74
2022/03/05 11:07:56;;;;;;;10.73;2.97;;;;;;;2.43;44.30;99227.81;5000872;28;20048;-75
2022/03/05 11:10:27;;;;;;;7.95;2.33;;;;;;;2.45;44.78;99221.91;5017051;28;20060;-75
2022/03/05 11:12:56;;;;;;;8.02;2.28;;;;;;;2.42;43.97;99214.16;5034732;28;20044;-74
2022/03/05 11:15:23;;;;;;;12.55;3.13;;;;;;;2.42;44.30;99216.72;5033186;28;20484;-74
2022/03/05 11:17:49;;;;;;;15.60;2.75;;;;;;;2.37;44.47;99218.31;5000897;28;20049;-73
2022/03/05 11:20:15;;;;;;;16.45;3.03;;;;;;;2.40;43.98;99225.22;5016866;28;20560;-74
2022/03/05 11:22:41;;;;;;;7.25;2.20;;;;;;;2.42;44.41;99229.53;5032689;28;20037;-74
2022/03/05 11:25:10;;;;;;;;;;;;;;;2.34;44.72;99227.63;5033470;28;20048;-74
2022/03/05 11:27:36;;;;;;;4.75;1.92;;;;;;;2.35;44.92;99224.25;5032709;28;19921;-74
2022/03/05 11:30:05;;;;;;;8.30;2.60;;;;;;;2.45;44.58;99221.06;5033298;28;20048;-74
2022/03/05 11:32:32;;;;;;;8.45;2.70;;;;;;;2.58;44.45;99237.56;5016331;28;20045;-76
2022/03/05 11:34:58;;;;;;;6.15;2.22;;;;;;;2.63;44.41;99226.56;5033959;28;20065;-74
2022/03/05 11:37:34;;;;;;;6.85;2.08;;;;;;;2.83;44.31;99229.50;5033784;28;20048;-73
2022/03/05 11:40:01;;;;;;;8.65;2.13;;;;;;;2.70;44.20;99236.13;5016437;28;20076;-73